Stations météo

réclame
Mon MeteoGroup
Kassel/Calden, Allemagne (10436): Température de l'air & dewpoint: 13.06.2019 18:00:00 - 19.06.2019 18:00:00 (CEST)Kassel/Calden, Allemagne (10436): Vitesse du vent: 13.06.2019 18:00:00 - 19.06.2019 18:00:00 (CEST)Kassel/Calden, Allemagne (10436): Direction du vent: 13.06.2019 18:00:00 - 19.06.2019 18:00:00 (CEST)Kassel/Calden, Allemagne (10436): visibility: 13.06.2019 18:00:00 - 19.06.2019 18:00:00 (CEST)
Date & Time tt [°C] td [°C] ff [km/h] ff [knt] dd vv [km]
19.06.2019 18:00:00 21,0 19,0 16 9 N 10
19.06.2019 17:00:00 29,0 16,0 15 8 S 10
19.06.2019 16:00:00 29,0 14,0 16 9 SW 10
19.06.2019 15:00:00 29,0 14,0 21 11 S 10
19.06.2019 14:00:00 29,0 15,0 16 9 S 10
19.06.2019 13:00:00 28,0 15,0 21 11 S 10
19.06.2019 12:00:00 27,0 16,0 15 8 S 10
19.06.2019 11:00:00 26,0 15,0 11 6 SSE 10
19.06.2019 10:00:00 25,0 16,0 11 6 SE 10
19.06.2019 09:00:00 23,0 15,0 11 6 SSE 10
19.06.2019 08:00:00 20,0 16,0 5 3 E 10
19.06.2019 07:00:00 18,0 16,0 5 3 E 10
19.06.2019 06:00:00 17,0 15,0 2 1 - 10
19.06.2019 05:00:00 - - - - - -
19.06.2019 04:00:00 - - - - - -
19.06.2019 03:00:00 - - - - - -
19.06.2019 02:00:00 - - - - - -
19.06.2019 01:00:00 - - - - - -
19.06.2019 00:00:00 - - - - - -
18.06.2019 23:00:00 - - - - - -
18.06.2019 22:00:00 22,0 16,0 5 3 SE 10
18.06.2019 21:00:00 24,0 16,0 5 3 S 10
18.06.2019 20:00:00 25,0 16,0 5 3 S 10
18.06.2019 19:00:00 26,0 15,0 5 3 S 10
18.06.2019 18:00:00 27,0 14,0 13 7 S 10
18.06.2019 17:00:00 28,0 13,0 11 6 SSE 10
18.06.2019 16:00:00 28,0 13,0 9 5 - 10
18.06.2019 15:00:00 27,0 12,0 9 5 S 10
18.06.2019 14:00:00 26,0 13,0 9 5 SSE 10
18.06.2019 13:00:00 26,0 13,0 13 7 SSE 10
18.06.2019 12:00:00 25,0 14,0 9 5 SSE 10
18.06.2019 11:00:00 23,0 14,0 11 6 E 10
18.06.2019 10:00:00 22,0 14,0 11 6 SE 10
18.06.2019 09:00:00 20,0 14,0 5 3 ENE 10
18.06.2019 08:00:00 17,0 14,0 2 1 - 10
18.06.2019 07:00:00 - - - - - -
18.06.2019 06:00:00 - - - - - -
18.06.2019 05:00:00 13,0 12,0 2 1 - 10
18.06.2019 04:00:00 - - - - - -
18.06.2019 03:00:00 - - - - - -
18.06.2019 02:00:00 - - - - - -
18.06.2019 01:00:00 - - - - - -
18.06.2019 00:00:00 - - - - - -
17.06.2019 23:00:00 - - - - - -
17.06.2019 22:00:00 20,0 14,0 5 3 ENE 10
17.06.2019 21:00:00 22,0 14,0 9 5 E 10
17.06.2019 20:00:00 24,0 13,0 11 6 E 10
17.06.2019 19:00:00 24,0 12,0 11 6 E 10
17.06.2019 18:00:00 24,0 12,0 11 6 ENE 10
17.06.2019 17:00:00 25,0 11,0 9 5 ESE 10
17.06.2019 16:00:00 24,0 12,0 8 4 - 10
17.06.2019 15:00:00 24,0 13,0 11 6 E 10
17.06.2019 14:00:00 23,0 13,0 11 6 ENE 10
17.06.2019 13:00:00 22,0 13,0 11 6 ESE 10
17.06.2019 12:00:00 22,0 14,0 13 7 E 10
17.06.2019 11:00:00 21,0 14,0 11 6 E 10
17.06.2019 10:00:00 19,0 15,0 8 4 E 10
17.06.2019 09:00:00 17,0 15,0 5 3 E 10
17.06.2019 08:00:00 15,0 14,0 5 3 ESE 10
17.06.2019 07:00:00 - - - - - -
17.06.2019 06:00:00 - - - - - -
17.06.2019 05:00:00 - - - - - -
17.06.2019 04:00:00 - - - - - -
17.06.2019 03:00:00 - - - - - -
17.06.2019 02:00:00 - - - - - -
17.06.2019 01:00:00 - - - - - -
17.06.2019 00:00:00 - - - - - -
16.06.2019 23:00:00 15,0 14,0 9 5 W 7
16.06.2019 22:00:00 17,0 14,0 8 4 ESE 10
16.06.2019 21:00:00 17,0 13,0 8 4 N 10
16.06.2019 20:00:00 20,0 13,0 5 3 E 10
16.06.2019 19:00:00 20,0 13,0 8 4 SE 10
16.06.2019 18:00:00 20,0 14,0 5 3 ENE 10
16.06.2019 17:00:00 18,0 13,0 11 6 N 10
16.06.2019 16:00:00 19,0 13,0 5 3 WSW 10
16.06.2019 15:00:00 18,0 14,0 9 5 SW 10
16.06.2019 14:00:00 18,0 14,0 9 5 S 10
16.06.2019 13:00:00 17,0 15,0 11 6 SSE 10
16.06.2019 12:00:00 16,0 14,0 9 5 SE 9
16.06.2019 11:00:00 16,0 15,0 5 3 SSE 10
16.06.2019 10:00:00 15,0 13,0 5 3 SSE 10
16.06.2019 09:00:00 14,0 13,0 9 5 ESE 10
16.06.2019 08:00:00 14,0 13,0 4 2 - 10
16.06.2019 07:00:00 - - - - - -
16.06.2019 06:00:00 - - - - - -
16.06.2019 05:00:00 13,0 12,0 2 1 - 10
16.06.2019 04:00:00 - - - - - -
16.06.2019 03:00:00 - - - - - -
16.06.2019 02:00:00 - - - - - -
16.06.2019 01:00:00 - - - - - -
16.06.2019 00:00:00 - - - - - -
15.06.2019 23:00:00 17,0 13,0 8 4 NW 10
15.06.2019 22:00:00 17,0 13,0 9 5 NNW 10
15.06.2019 21:00:00 19,0 13,0 9 5 NW 10
15.06.2019 20:00:00 20,0 13,0 16 9 NW 10
15.06.2019 19:00:00 22,0 13,0 18 10 NW 10
15.06.2019 18:00:00 22,0 12,0 26 14 WNW 10
15.06.2019 17:00:00 22,0 12,0 29 16 WNW 10
15.06.2019 16:00:00 22,0 13,0 31 17 WNW 10
15.06.2019 15:00:00 23,0 14,0 22 12 W 10
15.06.2019 14:00:00 22,0 15,0 21 11 WSW 10
15.06.2019 13:00:00 23,0 16,0 24 13 W 10
15.06.2019 12:00:00 21,0 15,0 21 11 W 10
15.06.2019 11:00:00 23,0 16,0 16 9 WSW 10
15.06.2019 10:00:00 22,0 15,0 22 12 SW 10
15.06.2019 09:00:00 21,0 16,0 4 2 - 10
15.06.2019 08:00:00 18,0 15,0 4 2 - 10
15.06.2019 07:00:00 - - - - - -
15.06.2019 06:00:00 - - - - - -
15.06.2019 05:00:00 15,0 14,0 8 4 W 10
15.06.2019 04:00:00 - - - - - -
15.06.2019 03:00:00 - - - - - -
15.06.2019 02:00:00 - - - - - -
15.06.2019 01:00:00 - - - - - -
15.06.2019 00:00:00 - - - - - -
14.06.2019 23:00:00 - - - - - -
14.06.2019 22:00:00 - - - - - -
14.06.2019 21:00:00 22,0 14,0 8 4 SSW 10
14.06.2019 20:00:00 23,0 15,0 5 3 SSE 10
14.06.2019 19:00:00 24,0 14,0 11 6 S 10
14.06.2019 18:00:00 24,0 15,0 15 8 SSE 10
14.06.2019 17:00:00 24,0 15,0 16 9 S 10
14.06.2019 16:00:00 25,0 13,0 22 12 S 10
14.06.2019 15:00:00 26,0 13,0 22 12 S 10
14.06.2019 14:00:00 26,0 13,0 28 15 S 10
14.06.2019 13:00:00 25,0 13,0 24 13 SE 10
14.06.2019 12:00:00 24,0 13,0 21 11 SSE 10
14.06.2019 11:00:00 23,0 13,0 21 11 SE 10
14.06.2019 10:00:00 21,0 12,0 18 10 SE 10
14.06.2019 09:00:00 18,0 12,0 13 7 SE 10
14.06.2019 08:00:00 16,0 11,0 8 4 E 10
14.06.2019 07:00:00 14,0 10,0 9 5 ESE 10
14.06.2019 06:00:00 - - - - - -
14.06.2019 05:00:00 - - - - - -
14.06.2019 04:00:00 - - - - - -
14.06.2019 03:00:00 - - - - - -
14.06.2019 02:00:00 - - - - - -
14.06.2019 01:00:00 - - - - - -
14.06.2019 00:00:00 - - - - - -
13.06.2019 23:00:00 - - - - - -
13.06.2019 22:00:00 16,0 8,0 11 6 SW 10
13.06.2019 21:00:00 18,0 8,0 13 7 SW 10
13.06.2019 20:00:00 20,0 9,0 16 9 S 10
13.06.2019 19:00:00 21,0 10,0 16 9 SW 10
13.06.2019 18:00:00 21,0 8,0 24 13 SSW 10

tt = Température de l'air
td = dewpoint
ff = Vitesse du vent
dd = Direction du vent
vv = visibility

stations d'obs. à proximité